sensor_id;sensor_type;location;lat;lon;timestamp;P1;durP1;ratioP1;P2;durP2;ratioP2
52858;SDS011;38721;53.098;6.596;2022-08-19T00:01:30;8.35;;;6.13;;
52858;SDS011;38721;53.098;6.596;2022-08-19T00:03:57;5.85;;;4.70;;
52858;SDS011;38721;53.098;6.596;2022-08-19T00:06:25;4.47;;;3.85;;
52858;SDS011;38721;53.098;6.596;2022-08-19T00:08:52;5.32;;;4.65;;
52858;SDS011;38721;53.098;6.596;2022-08-19T00:11:17;7.65;;;6.65;;
52858;SDS011;38721;53.098;6.596;2022-08-19T00:13:44;8.63;;;6.88;;
52858;SDS011;38721;53.098;6.596;2022-08-19T00:16:11;8.43;;;7.53;;
52858;SDS011;38721;53.098;6.596;2022-08-19T00:18:36;8.27;;;6.97;;
52858;SDS011;38721;53.098;6.596;2022-08-19T00:21:02;7.93;;;6.40;;
52858;SDS011;38721;53.098;6.596;2022-08-19T00:23:32;7.97;;;6.65;;
52858;SDS011;38721;53.098;6.596;2022-08-19T00:25:59;6.70;;;5.72;;
52858;SDS011;38721;53.098;6.596;2022-08-19T00:28:25;6.38;;;5.70;;
52858;SDS011;38721;53.098;6.596;2022-08-19T00:30:51;9.23;;;6.93;;
52858;SDS011;38721;53.098;6.596;2022-08-19T00:33:18;3.22;;;2.80;;
52858;SDS011;38721;53.098;6.596;2022-08-19T00:35:44;5.30;;;3.92;;
52858;SDS011;38721;53.098;6.596;2022-08-19T00:38:10;5.95;;;5.07;;
52858;SDS011;38721;53.098;6.596;2022-08-19T00:40:35;4.43;;;3.45;;
52858;SDS011;38721;53.098;6.596;2022-08-19T00:43:01;5.32;;;4.68;;
52858;SDS011;38721;53.098;6.596;2022-08-19T00:45:33;7.85;;;5.75;;
52858;SDS011;38721;53.098;6.596;2022-08-19T00:48:01;4.63;;;4.07;;
52858;SDS011;38721;53.098;6.596;2022-08-19T00:50:29;328.13;;;15.07;;
52858;SDS011;38721;53.098;6.596;2022-08-19T00:52:55;312.48;;;14.60;;
52858;SDS011;38721;53.098;6.596;2022-08-19T00:55:24;10.38;;;4.07;;
52858;SDS011;38721;53.098;6.596;2022-08-19T00:57:55;400.73;;;15.88;;
52858;SDS011;38721;53.098;6.596;2022-08-19T01:00:25;321.95;;;12.07;;
52858;SDS011;38721;53.098;6.596;2022-08-19T01:02:52;35.25;;;3.83;;
52858;SDS011;38721;53.098;6.596;2022-08-19T01:05:25;57.63;;;4.72;;
52858;SDS011;38721;53.098;6.596;2022-08-19T01:07:54;3.30;;;2.97;;
52858;SDS011;38721;53.098;6.596;2022-08-19T01:10:24;5.68;;;4.60;;
52858;SDS011;38721;53.098;6.596;2022-08-19T01:12:52;6.70;;;5.30;;
52858;SDS011;38721;53.098;6.596;2022-08-19T01:15:21;7.15;;;5.43;;
52858;SDS011;38721;53.098;6.596;2022-08-19T01:17:51;9.48;;;6.85;;
52858;SDS011;38721;53.098;6.596;2022-08-19T01:20:20;8.30;;;6.00;;
52858;SDS011;38721;53.098;6.596;2022-08-19T01:22:48;7.05;;;6.07;;
52858;SDS011;38721;53.098;6.596;2022-08-19T01:25:18;7.35;;;6.53;;
52858;SDS011;38721;53.098;6.596;2022-08-19T01:27:47;10.38;;;7.03;;
52858;SDS011;38721;53.098;6.596;2022-08-19T01:30:18;8.88;;;7.32;;
52858;SDS011;38721;53.098;6.596;2022-08-19T01:32:49;9.07;;;6.97;;
52858;SDS011;38721;53.098;6.596;2022-08-19T01:35:16;10.15;;;6.32;;
52858;SDS011;38721;53.098;6.596;2022-08-19T01:40:12;11.02;;;7.45;;
52858;SDS011;38721;53.098;6.596;2022-08-19T01:42:39;7.03;;;4.70;;
52858;SDS011;38721;53.098;6.596;2022-08-19T01:45:06;4.65;;;4.03;;
52858;SDS011;38721;53.098;6.596;2022-08-19T01:47:33;7.70;;;5.55;;
52858;SDS011;38721;53.098;6.596;2022-08-19T01:50:01;8.18;;;6.10;;
52858;SDS011;38721;53.098;6.596;2022-08-19T01:52:27;7.50;;;6.55;;
52858;SDS011;38721;53.098;6.596;2022-08-19T01:54:53;9.57;;;7.10;;
52858;SDS011;38721;53.098;6.596;2022-08-19T01:57:19;9.20;;;7.93;;
52858;SDS011;38721;53.098;6.596;2022-08-19T01:59:44;9.02;;;7.57;;
52858;SDS011;38721;53.098;6.596;2022-08-19T02:02:10;5.30;;;4.68;;
52858;SDS011;38721;53.098;6.596;2022-08-19T02:04:36;9.73;;;7.90;;
52858;SDS011;38721;53.098;6.596;2022-08-19T02:07:03;8.85;;;6.60;;
52858;SDS011;38721;53.098;6.596;2022-08-19T02:09:30;9.02;;;6.80;;
52858;SDS011;38721;53.098;6.596;2022-08-19T02:11:56;8.32;;;6.15;;
52858;SDS011;38721;53.098;6.596;2022-08-19T02:14:22;7.03;;;5.70;;
52858;SDS011;38721;53.098;6.596;2022-08-19T02:16:47;11.15;;;7.32;;
52858;SDS011;38721;53.098;6.596;2022-08-19T02:19:13;8.15;;;6.07;;
52858;SDS011;38721;53.098;6.596;2022-08-19T02:21:38;8.23;;;6.72;;
52858;SDS011;38721;53.098;6.596;2022-08-19T02:24:04;8.95;;;6.80;;
52858;SDS011;38721;53.098;6.596;2022-08-19T02:26:31;9.07;;;7.22;;
52858;SDS011;38721;53.098;6.596;2022-08-19T02:28:57;14.00;;;4.25;;
52858;SDS011;38721;53.098;6.596;2022-08-19T02:31:24;7.40;;;5.93;;
52858;SDS011;38721;53.098;6.596;2022-08-19T02:33:51;10.27;;;7.28;;
52858;SDS011;38721;53.098;6.596;2022-08-19T02:36:21;10.02;;;6.70;;
52858;SDS011;38721;53.098;6.596;2022-08-19T02:38:47;7.97;;;6.15;;
52858;SDS011;38721;53.098;6.596;2022-08-19T02:41:17;7.93;;;5.53;;
52858;SDS011;38721;53.098;6.596;2022-08-19T02:43:45;11.02;;;7.57;;
52858;SDS011;38721;53.098;6.596;2022-08-19T02:46:16;9.50;;;6.45;;
52858;SDS011;38721;53.098;6.596;2022-08-19T02:48:47;8.43;;;5.80;;
52858;SDS011;38721;53.098;6.596;2022-08-19T02:51:21;12.18;;;9.25;;
52858;SDS011;38721;53.098;6.596;2022-08-19T02:53:52;12.32;;;9.05;;
52858;SDS011;38721;53.098;6.596;2022-08-19T02:56:18;13.75;;;10.10;;
52858;SDS011;38721;53.098;6.596;2022-08-19T02:58:45;13.25;;;9.93;;
52858;SDS011;38721;53.098;6.596;2022-08-19T03:01:18;13.00;;;9.20;;
52858;SDS011;38721;53.098;6.596;2022-08-19T03:03:46;10.75;;;8.20;;
52858;SDS011;38721;53.098;6.596;2022-08-19T03:06:13;12.85;;;8.70;;
52858;SDS011;38721;53.098;6.596;2022-08-19T03:08:41;192.73;;;17.95;;
52858;SDS011;38721;53.098;6.596;2022-08-19T03:11:25;20.42;;;10.35;;
52858;SDS011;38721;53.098;6.596;2022-08-19T03:13:54;12.15;;;9.05;;
52858;SDS011;38721;53.098;6.596;2022-08-19T03:16:22;19.17;;;11.60;;
52858;SDS011;38721;53.098;6.596;2022-08-19T03:18:49;17.75;;;11.50;;
52858;SDS011;38721;53.098;6.596;2022-08-19T03:21:21;12.50;;;9.82;;
52858;SDS011;38721;53.098;6.596;2022-08-19T03:23:50;12.95;;;9.68;;
52858;SDS011;38721;53.098;6.596;2022-08-19T03:26:19;16.55;;;10.80;;
52858;SDS011;38721;53.098;6.596;2022-08-19T03:28:44;25.08;;;12.38;;
52858;SDS011;38721;53.098;6.596;2022-08-19T03:31:15;13.40;;;10.25;;
52858;SDS011;38721;53.098;6.596;2022-08-19T03:33:43;13.60;;;9.48;;
52858;SDS011;38721;53.098;6.596;2022-08-19T03:36:14;11.68;;;8.15;;
52858;SDS011;38721;53.098;6.596;2022-08-19T03:38:45;10.52;;;8.25;;
52858;SDS011;38721;53.098;6.596;2022-08-19T03:41:18;15.43;;;10.18;;
52858;SDS011;38721;53.098;6.596;2022-08-19T03:43:45;12.18;;;8.45;;
52858;SDS011;38721;53.098;6.596;2022-08-19T03:46:14;13.68;;;8.65;;
52858;SDS011;38721;53.098;6.596;2022-08-19T03:48:48;12.13;;;7.73;;
52858;SDS011;38721;53.098;6.596;2022-08-19T03:51:25;10.75;;;8.38;;
52858;SDS011;38721;53.098;6.596;2022-08-19T03:53:54;10.73;;;8.30;;
52858;SDS011;38721;53.098;6.596;2022-08-19T03:56:21;10.23;;;7.15;;
52858;SDS011;38721;53.098;6.596;2022-08-19T03:58:47;253.23;;;13.77;;
52858;SDS011;38721;53.098;6.596;2022-08-19T04:01:14;16.27;;;4.85;;
52858;SDS011;38721;53.098;6.596;2022-08-19T04:03:42;11.45;;;5.70;;
52858;SDS011;38721;53.098;6.596;2022-08-19T04:06:11;9.55;;;6.50;;
52858;SDS011;38721;53.098;6.596;2022-08-19T04:08:42;9.02;;;6.47;;
52858;SDS011;38721;53.098;6.596;2022-08-19T04:11:11;7.13;;;5.60;;
52858;SDS011;38721;53.098;6.596;2022-08-19T04:13:39;11.32;;;7.22;;
52858;SDS011;38721;53.098;6.596;2022-08-19T04:16:05;17.92;;;8.23;;
52858;SDS011;38721;53.098;6.596;2022-08-19T04:18:34;13.23;;;8.07;;
52858;SDS011;38721;53.098;6.596;2022-08-19T04:21:01;9.50;;;6.97;;
52858;SDS011;38721;53.098;6.596;2022-08-19T04:23:27;14.93;;;8.07;;
52858;SDS011;38721;53.098;6.596;2022-08-19T04:25:55;9.45;;;7.50;;
52858;SDS011;38721;53.098;6.596;2022-08-19T04:28:22;13.07;;;9.35;;
52858;SDS011;38721;53.098;6.596;2022-08-19T04:30:49;12.18;;;7.90;;
52858;SDS011;38721;53.098;6.596;2022-08-19T04:33:17;11.07;;;7.95;;
52858;SDS011;38721;53.098;6.596;2022-08-19T04:35:46;12.90;;;8.93;;
52858;SDS011;38721;53.098;6.596;2022-08-19T04:38:14;13.48;;;10.05;;
52858;SDS011;38721;53.098;6.596;2022-08-19T04:40:42;15.57;;;10.18;;
52858;SDS011;38721;53.098;6.596;2022-08-19T04:43:32;13.70;;;9.90;;
52858;SDS011;38721;53.098;6.596;2022-08-19T04:46:04;15.93;;;10.82;;
52858;SDS011;38721;53.098;6.596;2022-08-19T04:48:35;10.05;;;7.50;;
52858;SDS011;38721;53.098;6.596;2022-08-19T04:51:01;14.13;;;9.80;;
52858;SDS011;38721;53.098;6.596;2022-08-19T04:53:33;46.25;;;8.82;;
52858;SDS011;38721;53.098;6.596;2022-08-19T04:56:03;26.63;;;9.68;;
52858;SDS011;38721;53.098;6.596;2022-08-19T04:58:32;10.95;;;7.95;;
52858;SDS011;38721;53.098;6.596;2022-08-19T05:00:58;12.45;;;9.48;;
52858;SDS011;38721;53.098;6.596;2022-08-19T05:03:27;13.40;;;10.48;;
52858;SDS011;38721;53.098;6.596;2022-08-19T05:05:58;11.70;;;7.75;;
52858;SDS011;38721;53.098;6.596;2022-08-19T05:08:29;15.07;;;9.70;;
52858;SDS011;38721;53.098;6.596;2022-08-19T05:10:55;12.35;;;8.88;;
52858;SDS011;38721;53.098;6.596;2022-08-19T05:13:22;16.50;;;9.93;;
52858;SDS011;38721;53.098;6.596;2022-08-19T05:15:55;12.27;;;8.35;;
52858;SDS011;38721;53.098;6.596;2022-08-19T05:18:22;17.77;;;11.18;;
52858;SDS011;38721;53.098;6.596;2022-08-19T05:21:16;16.77;;;11.25;;
52858;SDS011;38721;53.098;6.596;2022-08-19T05:24:03;17.23;;;11.55;;
52858;SDS011;38721;53.098;6.596;2022-08-19T05:26:40;14.50;;;10.43;;
52858;SDS011;38721;53.098;6.596;2022-08-19T05:29:11;18.42;;;11.55;;
52858;SDS011;38721;53.098;6.596;2022-08-19T05:31:43;17.98;;;11.55;;
52858;SDS011;38721;53.098;6.596;2022-08-19T05:34:09;18.98;;;11.85;;
52858;SDS011;38721;53.098;6.596;2022-08-19T05:36:37;21.48;;;12.82;;
52858;SDS011;38721;53.098;6.596;2022-08-19T05:39:05;19.50;;;13.38;;
52858;SDS011;38721;53.098;6.596;2022-08-19T05:41:32;20.95;;;13.38;;
52858;SDS011;38721;53.098;6.596;2022-08-19T05:44:00;20.23;;;12.68;;
52858;SDS011;38721;53.098;6.596;2022-08-19T05:46:27;17.55;;;12.65;;
52858;SDS011;38721;53.098;6.596;2022-08-19T05:48:53;19.38;;;12.00;;
52858;SDS011;38721;53.098;6.596;2022-08-19T05:51:21;17.67;;;12.30;;
52858;SDS011;38721;53.098;6.596;2022-08-19T05:53:48;19.70;;;12.68;;
52858;SDS011;38721;53.098;6.596;2022-08-19T05:56:15;15.15;;;11.55;;
52858;SDS011;38721;53.098;6.596;2022-08-19T05:58:43;16.67;;;12.88;;
52858;SDS011;38721;53.098;6.596;2022-08-19T06:01:16;17.15;;;11.88;;
52858;SDS011;38721;53.098;6.596;2022-08-19T06:03:43;18.25;;;12.27;;
52858;SDS011;38721;53.098;6.596;2022-08-19T06:06:10;18.70;;;13.00;;
52858;SDS011;38721;53.098;6.596;2022-08-19T06:08:37;15.57;;;12.43;;
52858;SDS011;38721;53.098;6.596;2022-08-19T06:11:13;20.40;;;14.27;;
52858;SDS011;38721;53.098;6.596;2022-08-19T06:13:48;21.35;;;13.80;;
52858;SDS011;38721;53.098;6.596;2022-08-19T06:16:18;19.27;;;13.90;;
52858;SDS011;38721;53.098;6.596;2022-08-19T06:18:51;21.98;;;14.60;;
52858;SDS011;38721;53.098;6.596;2022-08-19T06:21:21;22.83;;;14.55;;
52858;SDS011;38721;53.098;6.596;2022-08-19T06:23:49;20.30;;;15.00;;
52858;SDS011;38721;53.098;6.596;2022-08-19T06:26:17;22.05;;;15.98;;
52858;SDS011;38721;53.098;6.596;2022-08-19T06:28:43;18.45;;;14.23;;
52858;SDS011;38721;53.098;6.596;2022-08-19T06:31:14;17.67;;;14.02;;
52858;SDS011;38721;53.098;6.596;2022-08-19T06:33:41;22.25;;;14.65;;
52858;SDS011;38721;53.098;6.596;2022-08-19T06:36:15;18.35;;;14.18;;
52858;SDS011;38721;53.098;6.596;2022-08-19T06:38:44;21.60;;;14.60;;
52858;SDS011;38721;53.098;6.596;2022-08-19T06:41:10;18.35;;;14.35;;
52858;SDS011;38721;53.098;6.596;2022-08-19T06:43:36;18.20;;;13.20;;
52858;SDS011;38721;53.098;6.596;2022-08-19T06:46:01;16.48;;;12.82;;
52858;SDS011;38721;53.098;6.596;2022-08-19T06:48:28;16.42;;;12.57;;
52858;SDS011;38721;53.098;6.596;2022-08-19T06:50:55;16.77;;;13.40;;
52858;SDS011;38721;53.098;6.596;2022-08-19T06:53:21;16.42;;;13.02;;
52858;SDS011;38721;53.098;6.596;2022-08-19T06:55:47;16.58;;;12.35;;
52858;SDS011;38721;53.098;6.596;2022-08-19T06:58:12;17.27;;;13.43;;
52858;SDS011;38721;53.098;6.596;2022-08-19T07:00:39;16.63;;;12.77;;
52858;SDS011;38721;53.098;6.596;2022-08-19T07:03:05;14.32;;;12.25;;
52858;SDS011;38721;53.098;6.596;2022-08-19T07:05:31;15.65;;;13.20;;
52858;SDS011;38721;53.098;6.596;2022-08-19T07:07:56;15.77;;;12.25;;
52858;SDS011;38721;53.098;6.596;2022-08-19T07:10:22;17.77;;;12.00;;
52858;SDS011;38721;53.098;6.596;2022-08-19T07:12:48;13.88;;;12.15;;
52858;SDS011;38721;53.098;6.596;2022-08-19T07:15:15;20.10;;;11.27;;
52858;SDS011;38721;53.098;6.596;2022-08-19T07:17:41;15.85;;;12.35;;
52858;SDS011;38721;53.098;6.596;2022-08-19T07:20:09;15.20;;;12.30;;
52858;SDS011;38721;53.098;6.596;2022-08-19T07:22:35;17.85;;;12.82;;
52858;SDS011;38721;53.098;6.596;2022-08-19T07:25:03;16.38;;;12.43;;
52858;SDS011;38721;53.098;6.596;2022-08-19T07:27:30;16.10;;;12.13;;
52858;SDS011;38721;53.098;6.596;2022-08-19T07:29:56;16.50;;;12.27;;
52858;SDS011;38721;53.098;6.596;2022-08-19T07:32:22;15.82;;;12.15;;
52858;SDS011;38721;53.098;6.596;2022-08-19T07:34:47;15.20;;;13.35;;
52858;SDS011;38721;53.098;6.596;2022-08-19T07:37:13;13.52;;;11.77;;
52858;SDS011;38721;53.098;6.596;2022-08-19T07:39:39;15.82;;;11.43;;
52858;SDS011;38721;53.098;6.596;2022-08-19T07:42:06;15.60;;;12.25;;
52858;SDS011;38721;53.098;6.596;2022-08-19T07:44:35;18.92;;;11.93;;
52858;SDS011;38721;53.098;6.596;2022-08-19T07:47:01;14.82;;;11.15;;
52858;SDS011;38721;53.098;6.596;2022-08-19T07:49:29;13.73;;;10.93;;
52858;SDS011;38721;53.098;6.596;2022-08-19T07:51:56;15.07;;;11.27;;
52858;SDS011;38721;53.098;6.596;2022-08-19T07:54:32;13.40;;;10.48;;
52858;SDS011;38721;53.098;6.596;2022-08-19T07:57:01;12.68;;;10.65;;
52858;SDS011;38721;53.098;6.596;2022-08-19T07:59:28;12.07;;;10.45;;
52858;SDS011;38721;53.098;6.596;2022-08-19T08:01:54;15.52;;;10.50;;
52858;SDS011;38721;53.098;6.596;2022-08-19T08:04:20;12.77;;;10.27;;
52858;SDS011;38721;53.098;6.596;2022-08-19T08:07:05;12.70;;;10.02;;
52858;SDS011;38721;53.098;6.596;2022-08-19T08:09:51;12.02;;;10.73;;
52858;SDS011;38721;53.098;6.596;2022-08-19T08:12:19;12.35;;;9.73;;
52858;SDS011;38721;53.098;6.596;2022-08-19T08:14:54;12.80;;;10.02;;
52858;SDS011;38721;53.098;6.596;2022-08-19T08:17:22;11.35;;;9.98;;
52858;SDS011;38721;53.098;6.596;2022-08-19T08:19:51;13.40;;;10.15;;
52858;SDS011;38721;53.098;6.596;2022-08-19T08:22:18;13.10;;;9.73;;
52858;SDS011;38721;53.098;6.596;2022-08-19T08:25:08;10.85;;;9.75;;
52858;SDS011;38721;53.098;6.596;2022-08-19T08:27:39;11.27;;;9.00;;
52858;SDS011;38721;53.098;6.596;2022-08-19T08:30:07;10.43;;;9.15;;
52858;SDS011;38721;53.098;6.596;2022-08-19T08:32:39;11.90;;;9.43;;
52858;SDS011;38721;53.098;6.596;2022-08-19T08:35:07;13.45;;;10.07;;
52858;SDS011;38721;53.098;6.596;2022-08-19T08:37:35;12.07;;;9.93;;
52858;SDS011;38721;53.098;6.596;2022-08-19T08:40:45;13.15;;;10.10;;
52858;SDS011;38721;53.098;6.596;2022-08-19T08:43:13;11.13;;;9.10;;
52858;SDS011;38721;53.098;6.596;2022-08-19T08:45:59;8.82;;;7.93;;
52858;SDS011;38721;53.098;6.596;2022-08-19T08:51:37;8.57;;;6.22;;
52858;SDS011;38721;53.098;6.596;2022-08-19T08:54:10;7.90;;;5.85;;
52858;SDS011;38721;53.098;6.596;2022-08-19T08:56:39;6.55;;;5.78;;
52858;SDS011;38721;53.098;6.596;2022-08-19T08:59:10;7.03;;;6.32;;
52858;SDS011;38721;53.098;6.596;2022-08-19T09:01:47;7.90;;;6.22;;
52858;SDS011;38721;53.098;6.596;2022-08-19T09:04:13;9.63;;;6.88;;
52858;SDS011;38721;53.098;6.596;2022-08-19T09:06:59;9.98;;;6.90;;
52858;SDS011;38721;53.098;6.596;2022-08-19T09:09:30;8.27;;;7.03;;
52858;SDS011;38721;53.098;6.596;2022-08-19T09:17:26;11.60;;;8.52;;
52858;SDS011;38721;53.098;6.596;2022-08-19T09:22:41;8.43;;;6.55;;
52858;SDS011;38721;53.098;6.596;2022-08-19T09:25:11;8.00;;;7.20;;
52858;SDS011;38721;53.098;6.596;2022-08-19T09:27:39;8.43;;;7.55;;
52858;SDS011;38721;53.098;6.596;2022-08-19T09:30:07;8.75;;;7.82;;
52858;SDS011;38721;53.098;6.596;2022-08-19T09:32:34;9.50;;;7.88;;
52858;SDS011;38721;53.098;6.596;2022-08-19T09:35:00;10.77;;;8.75;;
52858;SDS011;38721;53.098;6.596;2022-08-19T09:37:27;10.48;;;8.55;;
52858;SDS011;38721;53.098;6.596;2022-08-19T09:39:53;9.93;;;8.93;;
52858;SDS011;38721;53.098;6.596;2022-08-19T09:42:19;8.88;;;7.43;;
52858;SDS011;38721;53.098;6.596;2022-08-19T09:44:45;9.45;;;7.75;;
52858;SDS011;38721;53.098;6.596;2022-08-19T09:47:11;10.60;;;8.07;;
52858;SDS011;38721;53.098;6.596;2022-08-19T09:49:38;10.77;;;9.63;;
52858;SDS011;38721;53.098;6.596;2022-08-19T09:52:10;15.57;;;9.75;;
52858;SDS011;38721;53.098;6.596;2022-08-19T09:54:37;11.13;;;9.88;;
52858;SDS011;38721;53.098;6.596;2022-08-19T09:57:03;12.05;;;10.25;;
52858;SDS011;38721;53.098;6.596;2022-08-19T09:59:29;8.18;;;7.38;;
52858;SDS011;38721;53.098;6.596;2022-08-19T10:01:55;11.68;;;9.20;;
52858;SDS011;38721;53.098;6.596;2022-08-19T10:04:21;10.07;;;9.07;;
52858;SDS011;38721;53.098;6.596;2022-08-19T10:06:48;13.75;;;10.50;;
52858;SDS011;38721;53.098;6.596;2022-08-19T10:09:16;10.30;;;9.30;;
52858;SDS011;38721;53.098;6.596;2022-08-19T10:11:43;12.68;;;10.27;;
52858;SDS011;38721;53.098;6.596;2022-08-19T10:14:13;11.38;;;10.10;;
52858;SDS011;38721;53.098;6.596;2022-08-19T10:16:39;10.27;;;8.13;;
52858;SDS011;38721;53.098;6.596;2022-08-19T10:19:06;8.85;;;7.95;;
52858;SDS011;38721;53.098;6.596;2022-08-19T10:21:32;10.57;;;8.57;;
52858;SDS011;38721;53.098;6.596;2022-08-19T10:24:00;11.40;;;9.98;;
52858;SDS011;38721;53.098;6.596;2022-08-19T10:26:30;9.70;;;8.57;;
52858;SDS011;38721;53.098;6.596;2022-08-19T10:29:02;10.30;;;8.52;;
52858;SDS011;38721;53.098;6.596;2022-08-19T10:31:30;9.48;;;8.48;;
52858;SDS011;38721;53.098;6.596;2022-08-19T10:33:58;8.68;;;7.78;;
52858;SDS011;38721;53.098;6.596;2022-08-19T10:36:29;9.80;;;8.80;;
52858;SDS011;38721;53.098;6.596;2022-08-19T10:39:02;9.55;;;8.55;;
52858;SDS011;38721;53.098;6.596;2022-08-19T10:41:33;9.63;;;8.60;;
52858;SDS011;38721;53.098;6.596;2022-08-19T10:44:02;9.45;;;7.63;;
52858;SDS011;38721;53.098;6.596;2022-08-19T10:46:30;9.38;;;8.32;;
52858;SDS011;38721;53.098;6.596;2022-08-19T10:48:58;10.63;;;9.35;;
52858;SDS011;38721;53.098;6.596;2022-08-19T10:51:26;10.25;;;8.20;;
52858;SDS011;38721;53.098;6.596;2022-08-19T10:54:17;10.10;;;7.65;;
52858;SDS011;38721;53.098;6.596;2022-08-19T10:56:44;12.95;;;8.60;;
52858;SDS011;38721;53.098;6.596;2022-08-19T11:01:46;11.80;;;8.55;;
52858;SDS011;38721;53.098;6.596;2022-08-19T11:04:12;9.05;;;8.07;;
52858;SDS011;38721;53.098;6.596;2022-08-19T11:06:41;13.45;;;12.02;;
52858;SDS011;38721;53.098;6.596;2022-08-19T11:09:08;12.48;;;10.88;;
52858;SDS011;38721;53.098;6.596;2022-08-19T11:11:36;12.45;;;10.30;;
52858;SDS011;38721;53.098;6.596;2022-08-19T11:14:05;12.27;;;10.32;;
52858;SDS011;38721;53.098;6.596;2022-08-19T11:16:35;12.20;;;10.90;;
52858;SDS011;38721;53.098;6.596;2022-08-19T11:19:03;22.27;;;12.43;;
52858;SDS011;38721;53.098;6.596;2022-08-19T11:21:30;13.77;;;11.32;;
52858;SDS011;38721;53.098;6.596;2022-08-19T11:24:02;13.32;;;11.40;;
52858;SDS011;38721;53.098;6.596;2022-08-19T11:26:31;15.02;;;12.93;;
52858;SDS011;38721;53.098;6.596;2022-08-19T11:28:57;13.05;;;11.65;;
52858;SDS011;38721;53.098;6.596;2022-08-19T11:31:25;14.07;;;12.57;;
52858;SDS011;38721;53.098;6.596;2022-08-19T11:33:56;14.00;;;12.70;;
52858;SDS011;38721;53.098;6.596;2022-08-19T11:36:22;13.30;;;11.77;;
52858;SDS011;38721;53.098;6.596;2022-08-19T11:38:48;13.48;;;12.20;;
52858;SDS011;38721;53.098;6.596;2022-08-19T11:41:15;14.00;;;12.48;;
52858;SDS011;38721;53.098;6.596;2022-08-19T11:43:42;14.48;;;11.77;;
52858;SDS011;38721;53.098;6.596;2022-08-19T11:46:09;13.15;;;10.57;;
52858;SDS011;38721;53.098;6.596;2022-08-19T11:48:37;11.52;;;10.20;;
52858;SDS011;38721;53.098;6.596;2022-08-19T11:51:04;12.07;;;10.82;;
52858;SDS011;38721;53.098;6.596;2022-08-19T11:53:32;11.13;;;10.02;;
52858;SDS011;38721;53.098;6.596;2022-08-19T11:55:59;13.80;;;11.73;;
52858;SDS011;38721;53.098;6.596;2022-08-19T11:58:25;11.55;;;10.45;;
52858;SDS011;38721;53.098;6.596;2022-08-19T12:00:51;13.35;;;12.05;;
52858;SDS011;38721;53.098;6.596;2022-08-19T12:03:17;11.57;;;10.05;;
52858;SDS011;38721;53.098;6.596;2022-08-19T12:05:45;11.45;;;10.45;;
52858;SDS011;38721;53.098;6.596;2022-08-19T12:08:10;12.70;;;11.27;;
52858;SDS011;38721;53.098;6.596;2022-08-19T12:10:38;11.35;;;10.02;;
52858;SDS011;38721;53.098;6.596;2022-08-19T12:13:04;9.30;;;8.40;;
52858;SDS011;38721;53.098;6.596;2022-08-19T12:15:34;10.15;;;8.73;;
52858;SDS011;38721;53.098;6.596;2022-08-19T12:18:05;9.93;;;8.93;;
52858;SDS011;38721;53.098;6.596;2022-08-19T12:20:34;10.00;;;8.93;;
52858;SDS011;38721;53.098;6.596;2022-08-19T12:23:04;10.02;;;9.02;;
52858;SDS011;38721;53.098;6.596;2022-08-19T12:25:31;9.77;;;8.77;;
52858;SDS011;38721;53.098;6.596;2022-08-19T12:27:58;11.27;;;9.88;;
52858;SDS011;38721;53.098;6.596;2022-08-19T12:30:24;10.57;;;9.40;;
52858;SDS011;38721;53.098;6.596;2022-08-19T12:32:49;11.80;;;9.68;;
52858;SDS011;38721;53.098;6.596;2022-08-19T12:35:16;10.13;;;9.13;;
52858;SDS011;38721;53.098;6.596;2022-08-19T12:37:44;10.32;;;8.40;;
52858;SDS011;38721;53.098;6.596;2022-08-19T12:40:11;8.55;;;7.65;;
52858;SDS011;38721;53.098;6.596;2022-08-19T12:42:38;8.05;;;7.25;;
52858;SDS011;38721;53.098;6.596;2022-08-19T12:45:11;7.00;;;6.30;;
52858;SDS011;38721;53.098;6.596;2022-08-19T12:47:38;6.78;;;5.97;;
52858;SDS011;38721;53.098;6.596;2022-08-19T12:50:04;8.00;;;6.72;;
52858;SDS011;38721;53.098;6.596;2022-08-19T12:52:34;7.63;;;6.25;;
52858;SDS011;38721;53.098;6.596;2022-08-19T12:55:07;7.53;;;5.45;;
52858;SDS011;38721;53.098;6.596;2022-08-19T12:57:34;6.75;;;5.30;;
52858;SDS011;38721;53.098;6.596;2022-08-19T13:00:03;10.05;;;6.55;;
52858;SDS011;38721;53.098;6.596;2022-08-19T13:02:35;7.38;;;6.55;;
52858;SDS011;38721;53.098;6.596;2022-08-19T13:05:03;10.15;;;6.55;;
52858;SDS011;38721;53.098;6.596;2022-08-19T13:07:31;8.45;;;6.13;;
52858;SDS011;38721;53.098;6.596;2022-08-19T13:09:57;7.63;;;5.78;;
52858;SDS011;38721;53.098;6.596;2022-08-19T13:12:23;6.40;;;5.80;;
52858;SDS011;38721;53.098;6.596;2022-08-19T13:14:51;7.80;;;6.38;;
52858;SDS011;38721;53.098;6.596;2022-08-19T13:17:18;9.20;;;6.00;;
52858;SDS011;38721;53.098;6.596;2022-08-19T13:19:44;8.05;;;6.15;;
52858;SDS011;38721;53.098;6.596;2022-08-19T13:22:09;8.05;;;6.05;;
52858;SDS011;38721;53.098;6.596;2022-08-19T13:24:37;9.57;;;8.57;;
52858;SDS011;38721;53.098;6.596;2022-08-19T13:27:03;14.40;;;10.27;;
52858;SDS011;38721;53.098;6.596;2022-08-19T13:29:29;14.23;;;10.95;;
52858;SDS011;38721;53.098;6.596;2022-08-19T13:32:13;13.27;;;11.05;;
52858;SDS011;38721;53.098;6.596;2022-08-19T13:34:57;13.07;;;11.60;;
52858;SDS011;38721;53.098;6.596;2022-08-19T13:37:26;16.23;;;11.48;;
52858;SDS011;38721;53.098;6.596;2022-08-19T13:40:07;17.40;;;12.52;;
52858;SDS011;38721;53.098;6.596;2022-08-19T13:42:41;14.60;;;13.18;;
52858;SDS011;38721;53.098;6.596;2022-08-19T13:45:07;17.30;;;14.48;;
52858;SDS011;38721;53.098;6.596;2022-08-19T13:47:33;18.83;;;14.93;;
52858;SDS011;38721;53.098;6.596;2022-08-19T13:50:03;18.08;;;15.20;;
52858;SDS011;38721;53.098;6.596;2022-08-19T13:52:29;17.83;;;14.60;;
52858;SDS011;38721;53.098;6.596;2022-08-19T13:54:55;21.50;;;15.55;;
52858;SDS011;38721;53.098;6.596;2022-08-19T13:57:21;19.52;;;15.35;;
52858;SDS011;38721;53.098;6.596;2022-08-19T13:59:47;19.55;;;15.27;;
52858;SDS011;38721;53.098;6.596;2022-08-19T14:02:15;18.15;;;14.35;;
52858;SDS011;38721;53.098;6.596;2022-08-19T14:04:41;16.98;;;14.00;;
52858;SDS011;38721;53.098;6.596;2022-08-19T14:07:07;19.95;;;15.60;;
52858;SDS011;38721;53.098;6.596;2022-08-19T14:09:32;19.30;;;15.05;;
52858;SDS011;38721;53.098;6.596;2022-08-19T14:11:59;18.70;;;15.05;;
52858;SDS011;38721;53.098;6.596;2022-08-19T14:14:25;18.08;;;14.00;;
52858;SDS011;38721;53.098;6.596;2022-08-19T14:16:51;19.52;;;15.70;;
52858;SDS011;38721;53.098;6.596;2022-08-19T14:19:17;20.55;;;15.15;;
52858;SDS011;38721;53.098;6.596;2022-08-19T14:21:42;20.52;;;16.23;;
52858;SDS011;38721;53.098;6.596;2022-08-19T14:24:08;19.08;;;15.73;;
52858;SDS011;38721;53.098;6.596;2022-08-19T14:26:34;19.10;;;15.27;;
52858;SDS011;38721;53.098;6.596;2022-08-19T14:28:59;19.02;;;15.82;;
52858;SDS011;38721;53.098;6.596;2022-08-19T14:31:26;19.75;;;16.00;;
52858;SDS011;38721;53.098;6.596;2022-08-19T14:33:52;21.40;;;15.77;;
52858;SDS011;38721;53.098;6.596;2022-08-19T14:36:18;21.42;;;16.33;;
52858;SDS011;38721;53.098;6.596;2022-08-19T14:38:46;20.55;;;16.08;;
52858;SDS011;38721;53.098;6.596;2022-08-19T14:41:17;21.83;;;17.00;;
52858;SDS011;38721;53.098;6.596;2022-08-19T14:43:49;19.55;;;16.63;;
52858;SDS011;38721;53.098;6.596;2022-08-19T14:46:17;22.90;;;17.25;;
52858;SDS011;38721;53.098;6.596;2022-08-19T14:48:46;25.42;;;18.00;;
52858;SDS011;38721;53.098;6.596;2022-08-19T14:51:12;21.42;;;17.30;;
52858;SDS011;38721;53.098;6.596;2022-08-19T14:53:42;23.40;;;17.20;;
52858;SDS011;38721;53.098;6.596;2022-08-19T14:56:12;20.95;;;16.70;;
52858;SDS011;38721;53.098;6.596;2022-08-19T14:58:40;22.00;;;15.23;;